createdAt,value
2022-07-26T00:02:04.115Z,28.23
2022-07-26T00:04:33.052Z,11.75
2022-07-26T00:07:02.094Z,10.20
2022-07-26T00:09:32.060Z,12.45
2022-07-26T00:12:01.284Z,11.50
2022-07-26T00:14:32.098Z,11.73
2022-07-26T00:17:00.180Z,12.23
2022-07-26T00:19:39.661Z,13.50
2022-07-26T00:22:07.985Z,12.43
2022-07-26T00:24:38.164Z,12.63
2022-07-26T00:27:14.911Z,15.43
2022-07-26T00:29:47.435Z,14.80
2022-07-26T00:32:15.661Z,12.70
2022-07-26T00:34:44.208Z,13.95
2022-07-26T00:37:22.039Z,14.02
2022-07-26T00:40:02.481Z,11.77
2022-07-26T00:42:30.614Z,10.38
2022-07-26T00:44:57.734Z,12.73
2022-07-26T00:47:34.136Z,10.60
2022-07-26T00:50:10.677Z,10.57
2022-07-26T00:52:39.934Z,12.15
2022-07-26T00:55:21.116Z,11.07
2022-07-26T00:57:59.739Z,14.10
2022-07-26T01:00:33.742Z,9.95
2022-07-26T01:03:11.104Z,11.63
2022-07-26T01:05:39.345Z,10.68
2022-07-26T01:08:16.084Z,13.48
2022-07-26T01:10:49.942Z,11.52
2022-07-26T01:13:21.688Z,11.20
2022-07-26T01:15:52.058Z,12.80
2022-07-26T01:18:28.604Z,13.93
2022-07-26T01:21:16.068Z,13.07
2022-07-26T01:23:51.580Z,13.25
2022-07-26T01:26:20.162Z,12.98
2022-07-26T01:28:58.612Z,14.10
2022-07-26T01:31:27.838Z,14.00
2022-07-26T01:33:57.343Z,12.05
2022-07-26T01:36:31.042Z,12.63
2022-07-26T01:39:01.235Z,10.23
2022-07-26T01:41:37.225Z,13.27
2022-07-26T01:44:15.404Z,16.20
2022-07-26T01:46:51.788Z,14.63
2022-07-26T01:49:22.564Z,14.07
2022-07-26T01:51:58.886Z,11.13
2022-07-26T01:54:29.160Z,12.82
2022-07-26T01:57:05.428Z,13.80
2022-07-26T01:59:36.769Z,14.88
2022-07-26T02:02:06.581Z,13.57
2022-07-26T02:04:38.461Z,15.35
2022-07-26T02:07:13.889Z,12.65
2022-07-26T02:09:44.473Z,14.38
2022-07-26T02:12:15.824Z,12.73
2022-07-26T02:14:48.935Z,13.52
2022-07-26T02:17:19.338Z,14.38
2022-07-26T02:19:48.465Z,16.15
2022-07-26T02:22:15.166Z,15.13
2022-07-26T02:24:43.522Z,16.08
2022-07-26T02:27:11.620Z,13.63
2022-07-26T02:29:41.877Z,17.08
2022-07-26T02:32:13.237Z,15.73
2022-07-26T02:34:42.040Z,17.10
2022-07-26T02:37:17.604Z,18.38
2022-07-26T02:39:48.590Z,18.10
2022-07-26T02:42:26.457Z,15.48
2022-07-26T02:44:56.475Z,15.05
2022-07-26T02:47:26.484Z,14.23
2022-07-26T02:49:56.438Z,13.20
2022-07-26T02:52:25.175Z,17.05
2022-07-26T02:54:55.720Z,14.48
2022-07-26T02:57:26.948Z,13.40
2022-07-26T02:59:55.273Z,15.15
2022-07-26T03:02:31.624Z,16.75
2022-07-26T03:05:01.530Z,13.60
2022-07-26T03:07:31.857Z,11.27
2022-07-26T03:10:01.022Z,13.10
2022-07-26T03:12:29.102Z,15.85
2022-07-26T03:14:55.994Z,12.52
2022-07-26T03:17:26.051Z,13.57
2022-07-26T03:19:56.259Z,11.73
2022-07-26T03:22:26.747Z,11.52
2022-07-26T03:24:56.469Z,12.70
2022-07-26T03:27:26.786Z,11.60
2022-07-26T03:29:55.568Z,15.23
2022-07-26T03:32:25.543Z,16.08
2022-07-26T03:34:54.924Z,12.43
2022-07-26T03:37:45.159Z,13.80
2022-07-26T03:40:29.053Z,13.13
2022-07-26T03:42:57.998Z,11.38
2022-07-26T03:45:25.715Z,10.73
2022-07-26T03:47:56.055Z,13.05
2022-07-26T03:50:26.044Z,15.60
2022-07-26T03:52:56.060Z,11.43
2022-07-26T03:55:25.704Z,11.60
2022-07-26T03:57:56.602Z,13.13
2022-07-26T04:00:26.455Z,12.10
2022-07-26T04:02:53.315Z,13.10
2022-07-26T04:05:26.151Z,9.95
2022-07-26T04:07:56.351Z,10.80
2022-07-26T04:10:26.336Z,9.65
2022-07-26T04:13:02.921Z,11.07
2022-07-26T04:15:34.642Z,10.50
2022-07-26T04:18:02.833Z,11.63
2022-07-26T04:20:38.918Z,11.77
2022-07-26T04:23:12.764Z,12.55
2022-07-26T04:25:49.764Z,10.95
2022-07-26T04:28:19.392Z,10.90
2022-07-26T04:30:49.865Z,10.90
2022-07-26T04:33:18.218Z,10.80
2022-07-26T04:35:48.360Z,14.95
2022-07-26T04:38:18.552Z,12.25
2022-07-26T04:40:47.934Z,12.32
2022-07-26T04:43:25.774Z,11.30
2022-07-26T04:45:55.010Z,10.80
2022-07-26T04:48:26.134Z,12.57
2022-07-26T04:50:54.987Z,11.73
2022-07-26T04:53:24.938Z,11.77
2022-07-26T04:55:54.170Z,14.25
2022-07-26T04:58:23.304Z,11.10
2022-07-26T05:03:43.458Z,9.18
2022-07-26T05:06:19.845Z,12.07
2022-07-26T05:08:48.575Z,17.08
2022-07-26T05:11:23.933Z,11.13
2022-07-26T05:13:51.734Z,11.00
2022-07-26T05:16:18.781Z,12.13
2022-07-26T05:18:49.592Z,11.38
2022-07-26T05:21:26.399Z,11.70
2022-07-26T05:23:55.637Z,9.55
2022-07-26T05:26:23.839Z,10.93
2022-07-26T05:28:53.811Z,11.98
2022-07-26T05:31:21.092Z,13.65
2022-07-26T05:33:49.806Z,14.68
2022-07-26T05:36:19.046Z,13.38
2022-07-26T05:38:48.743Z,13.13
2022-07-26T05:41:26.529Z,15.75
2022-07-26T05:43:55.599Z,12.65
2022-07-26T05:46:24.351Z,10.80
2022-07-26T05:48:54.652Z,10.77
2022-07-26T05:51:22.874Z,12.80
2022-07-26T05:53:52.115Z,11.93
2022-07-26T05:56:20.040Z,12.60
2022-07-26T05:58:50.253Z,12.82
2022-07-26T06:01:17.171Z,15.13
2022-07-26T06:03:47.728Z,16.73
2022-07-26T06:06:17.063Z,12.88
2022-07-26T06:08:45.577Z,17.80
2022-07-26T06:11:15.942Z,12.80
2022-07-26T06:13:47.216Z,13.10
2022-07-26T06:16:17.095Z,13.25
2022-07-26T06:18:47.290Z,15.23
2022-07-26T06:21:23.407Z,16.30
2022-07-26T06:23:58.889Z,15.52
2022-07-26T06:26:27.126Z,16.52
2022-07-26T06:28:57.707Z,13.18
2022-07-26T06:31:35.036Z,13.18
2022-07-26T06:34:11.900Z,15.75
2022-07-26T06:36:46.617Z,13.27
2022-07-26T06:39:15.658Z,10.88
2022-07-26T06:41:46.042Z,13.75
2022-07-26T06:44:22.553Z,15.38
2022-07-26T06:46:59.003Z,12.18
2022-07-26T06:49:28.464Z,14.40
2022-07-26T06:51:55.301Z,15.63
2022-07-26T06:54:26.372Z,13.88
2022-07-26T06:56:56.127Z,14.73
2022-07-26T06:59:26.339Z,13.45
2022-07-26T07:01:59.977Z,11.25
2022-07-26T07:04:30.940Z,15.45
2022-07-26T07:06:58.796Z,12.20
2022-07-26T07:09:28.722Z,12.02
2022-07-26T07:12:02.444Z,11.35
2022-07-26T07:14:43.700Z,15.98
2022-07-26T07:17:18.505Z,10.15
2022-07-26T07:19:50.160Z,13.77
2022-07-26T07:22:21.131Z,15.98
2022-07-26T07:27:31.460Z,14.20
2022-07-26T07:30:09.111Z,12.00
2022-07-26T07:32:45.938Z,12.88
2022-07-26T07:35:13.207Z,10.80
2022-07-26T07:37:53.520Z,14.23
2022-07-26T07:40:30.335Z,10.18
2022-07-26T07:42:59.636Z,10.13
2022-07-26T07:45:27.610Z,10.60
2022-07-26T07:47:56.061Z,12.68
2022-07-26T07:50:35.297Z,15.80
2022-07-26T07:53:05.293Z,10.05
2022-07-26T07:55:46.366Z,11.25
2022-07-26T08:00:48.975Z,9.38
2022-07-26T08:03:19.977Z,9.98
2022-07-26T08:05:51.097Z,11.82
2022-07-26T08:08:27.656Z,9.48
2022-07-26T08:10:55.775Z,9.20
2022-07-26T08:13:28.031Z,8.15
2022-07-26T08:15:56.741Z,8.48
2022-07-26T08:18:27.568Z,9.15
2022-07-26T08:20:59.498Z,8.70
2022-07-26T08:23:29.767Z,12.07
2022-07-26T08:26:03.214Z,6.47
2022-07-26T08:29:08.930Z,8.07
2022-07-26T08:31:29.161Z,12.18
2022-07-26T08:33:58.372Z,9.20
2022-07-26T08:36:32.708Z,8.98
2022-07-26T08:39:04.233Z,10.40
2022-07-26T08:41:34.729Z,7.60
2022-07-26T08:44:09.933Z,8.60
2022-07-26T08:46:40.980Z,8.82
2022-07-26T08:49:11.834Z,8.50
2022-07-26T08:51:55.251Z,6.00
2022-07-26T08:54:23.389Z,11.60
2022-07-26T08:56:56.197Z,8.70
2022-07-26T08:59:27.664Z,8.10
2022-07-26T09:02:07.789Z,8.15
2022-07-26T09:04:45.693Z,7.78
2022-07-26T09:07:26.319Z,9.77
2022-07-26T09:10:13.603Z,9.15
2022-07-26T09:12:43.705Z,10.38
2022-07-26T09:15:29.455Z,7.78
2022-07-26T09:18:05.880Z,9.60
2022-07-26T09:20:33.455Z,7.55
2022-07-26T09:23:11.341Z,5.50
2022-07-26T09:25:54.637Z,8.75
2022-07-26T09:28:25.189Z,7.22
2022-07-26T09:31:04.993Z,6.32
2022-07-26T09:33:53.673Z,5.30
2022-07-26T09:36:23.252Z,6.43
2022-07-26T09:39:00.367Z,5.75
2022-07-26T09:41:44.021Z,5.68
2022-07-26T09:44:26.845Z,5.18
2022-07-26T09:47:06.921Z,7.85
2022-07-26T09:49:40.628Z,6.70
2022-07-26T09:52:23.759Z,9.23
2022-07-26T09:54:52.799Z,9.68
2022-07-26T09:57:22.028Z,9.45
2022-07-26T09:59:56.546Z,8.57
2022-07-26T10:02:24.611Z,6.03
2022-07-26T10:04:54.975Z,8.27
2022-07-26T10:07:28.524Z,7.10
2022-07-26T10:10:04.653Z,8.70
2022-07-26T10:12:44.423Z,6.47
2022-07-26T10:15:34.069Z,6.85
2022-07-26T10:18:07.891Z,4.35
2022-07-26T10:20:43.438Z,7.82
2022-07-26T10:23:48.623Z,6.03
2022-07-26T10:26:36.552Z,6.80
2022-07-26T10:29:26.301Z,5.30
2022-07-26T10:32:16.320Z,7.63
2022-07-26T10:34:44.588Z,8.50
2022-07-26T10:37:26.960Z,6.95
2022-07-26T10:40:25.859Z,5.47
2022-07-26T10:43:42.423Z,4.72
2022-07-26T10:46:26.862Z,7.90
2022-07-26T10:49:06.018Z,8.68
2022-07-26T10:51:40.665Z,6.00
2022-07-26T10:54:16.564Z,12.20
2022-07-26T10:56:46.169Z,10.50
2022-07-26T10:59:13.084Z,4.85
2022-07-26T11:01:52.731Z,5.35
2022-07-26T11:04:25.369Z,5.82
2022-07-26T11:06:59.949Z,9.10
2022-07-26T11:09:37.025Z,6.90
2022-07-26T11:12:21.772Z,6.82
2022-07-26T11:14:50.304Z,8.05
2022-07-26T11:17:30.093Z,6.93
2022-07-26T11:19:58.604Z,6.53
2022-07-26T11:22:41.433Z,6.88
2022-07-26T11:25:09.843Z,9.30
2022-07-26T11:27:59.987Z,7.88
2022-07-26T11:30:30.205Z,10.85
2022-07-26T11:33:00.744Z,7.30
2022-07-26T11:35:37.118Z,6.82
2022-07-26T11:38:12.721Z,11.48
2022-07-26T11:43:22.231Z,5.80
2022-07-26T11:45:55.469Z,6.75
2022-07-26T11:48:32.465Z,9.02
2022-07-26T11:53:57.565Z,6.75
2022-07-26T11:56:26.669Z,6.30
2022-07-26T11:58:57.147Z,6.28
2022-07-26T12:01:34.149Z,9.88
2022-07-26T12:04:05.990Z,7.95
2022-07-26T12:06:39.539Z,5.28
2022-07-26T12:09:08.704Z,11.13
2022-07-26T12:11:42.703Z,10.45
2022-07-26T12:14:14.898Z,6.28
2022-07-26T12:16:50.839Z,6.93
2022-07-26T12:19:29.108Z,8.10
2022-07-26T12:22:13.322Z,6.47
2022-07-26T12:24:54.771Z,4.53
2022-07-26T12:27:36.236Z,9.85
2022-07-26T12:30:15.971Z,11.65
2022-07-26T12:32:46.592Z,9.88
2022-07-26T12:35:33.745Z,10.73
2022-07-26T12:38:04.096Z,8.40
2022-07-26T12:40:41.459Z,7.10
2022-07-26T12:43:11.801Z,11.25
2022-07-26T12:45:47.917Z,8.32
2022-07-26T12:48:24.398Z,8.10
2022-07-26T12:50:54.431Z,8.20
2022-07-26T12:53:23.053Z,8.82
2022-07-26T12:55:51.543Z,9.77
2022-07-26T12:58:19.554Z,7.15
2022-07-26T13:00:48.776Z,6.82
2022-07-26T13:03:17.000Z,4.28
2022-07-26T13:05:44.960Z,7.35
2022-07-26T13:08:15.077Z,5.25
2022-07-26T13:10:45.946Z,6.63
2022-07-26T13:13:14.242Z,4.00
2022-07-26T13:15:43.129Z,3.28
2022-07-26T13:18:13.252Z,7.28
2022-07-26T13:20:43.555Z,4.57
2022-07-26T13:23:21.444Z,3.45
2022-07-26T13:25:51.504Z,2.95
2022-07-26T13:28:21.872Z,4.28
2022-07-26T13:30:51.210Z,3.45
2022-07-26T13:33:19.035Z,7.05
2022-07-26T13:35:50.349Z,3.83
2022-07-26T13:38:29.595Z,5.60
2022-07-26T13:40:59.291Z,7.68
2022-07-26T13:43:31.186Z,3.15
2022-07-26T13:46:09.049Z,4.95
2022-07-26T13:48:48.124Z,4.47
2022-07-26T13:51:31.428Z,2.63
2022-07-26T13:54:01.182Z,5.65
2022-07-26T13:56:28.084Z,4.13
2022-07-26T13:58:58.440Z,4.00
2022-07-26T14:01:43.579Z,3.72
2022-07-26T14:04:16.486Z,3.53
2022-07-26T14:06:46.441Z,3.13
2022-07-26T14:09:15.262Z,3.65
2022-07-26T14:11:43.612Z,8.90
2022-07-26T14:14:11.552Z,4.97
2022-07-26T14:16:45.603Z,3.13
2022-07-26T14:19:27.487Z,3.75
2022-07-26T14:21:59.516Z,4.88
2022-07-26T14:24:42.003Z,6.65
2022-07-26T14:27:12.290Z,5.72
2022-07-26T14:29:43.259Z,3.13
2022-07-26T14:32:18.044Z,8.55
2022-07-26T14:34:51.479Z,3.83
2022-07-26T14:37:41.455Z,5.80
2022-07-26T14:40:10.167Z,7.72
2022-07-26T14:42:51.911Z,4.10
2022-07-26T14:45:19.934Z,5.13
2022-07-26T14:47:48.962Z,4.10
2022-07-26T14:50:16.180Z,4.35
2022-07-26T14:53:06.742Z,4.07
2022-07-26T14:55:36.826Z,6.38
2022-07-26T14:58:08.517Z,5.80
2022-07-26T15:00:37.678Z,4.80
2022-07-26T15:03:09.429Z,4.05
2022-07-26T15:05:37.751Z,4.25
2022-07-26T15:08:06.319Z,3.88
2022-07-26T15:10:39.526Z,3.42
2022-07-26T15:13:09.332Z,4.38
2022-07-26T15:15:39.150Z,6.20
2022-07-26T15:18:06.570Z,3.38
2022-07-26T15:20:39.189Z,3.42
2022-07-26T15:23:08.990Z,3.03
2022-07-26T15:25:46.189Z,5.25
2022-07-26T15:28:17.987Z,3.97
2022-07-26T15:30:49.890Z,2.65
2022-07-26T15:33:18.075Z,4.10
2022-07-26T15:35:53.622Z,3.78
2022-07-26T15:38:24.396Z,2.97
2022-07-26T15:40:54.820Z,2.20
2022-07-26T15:43:48.181Z,2.10
2022-07-26T15:46:18.656Z,3.47
2022-07-26T15:48:50.237Z,3.45
2022-07-26T15:51:20.910Z,2.33
2022-07-26T15:53:58.306Z,7.85
2022-07-26T15:56:28.256Z,2.63
2022-07-26T15:58:56.461Z,2.75
2022-07-26T16:01:26.502Z,4.30
2022-07-26T16:03:58.212Z,3.03
2022-07-26T16:06:34.547Z,2.10
2022-07-26T16:09:17.701Z,2.63
2022-07-26T16:11:53.326Z,5.03
2022-07-26T16:14:22.759Z,2.25
2022-07-26T16:16:59.377Z,4.45
2022-07-26T16:19:29.864Z,3.53
2022-07-26T16:22:06.972Z,2.67
2022-07-26T16:24:38.278Z,1.83
2022-07-26T16:27:09.000Z,3.22
2022-07-26T16:29:37.707Z,2.25
2022-07-26T16:32:07.093Z,3.85
2022-07-26T16:34:36.960Z,4.18
2022-07-26T16:37:11.088Z,5.00
2022-07-26T16:39:47.414Z,3.22
2022-07-26T16:42:16.488Z,3.58
2022-07-26T16:44:45.994Z,5.43
2022-07-26T16:47:14.317Z,3.10
2022-07-26T16:49:42.639Z,1.75
2022-07-26T16:52:11.704Z,4.32
2022-07-26T16:54:40.740Z,2.90
2022-07-26T16:57:07.689Z,4.70
2022-07-26T16:59:38.521Z,5.43
2022-07-26T17:02:07.355Z,4.95
2022-07-26T17:04:43.701Z,2.80
2022-07-26T17:07:25.503Z,2.38
2022-07-26T17:10:01.963Z,3.53
2022-07-26T17:12:33.125Z,4.63
2022-07-26T17:15:03.372Z,1.67
2022-07-26T17:17:31.151Z,3.00
2022-07-26T17:20:00.571Z,4.55
2022-07-26T17:22:29.005Z,2.60
2022-07-26T17:24:59.650Z,1.92
2022-07-26T17:27:28.031Z,4.25
2022-07-26T17:29:56.246Z,3.42
2022-07-26T17:32:36.932Z,3.05
2022-07-26T17:35:09.027Z,2.05
2022-07-26T17:37:39.966Z,2.92
2022-07-26T17:40:16.541Z,3.88
2022-07-26T17:42:47.201Z,5.15
2022-07-26T18:08:11.207Z,3.17
2022-07-26T18:10:40.911Z,4.03
2022-07-26T18:13:11.238Z,4.05
2022-07-26T18:15:41.065Z,3.35
2022-07-26T18:18:10.136Z,3.88
2022-07-26T18:20:47.445Z,4.53
2022-07-26T18:23:25.981Z,3.17
2022-07-26T18:25:52.715Z,4.55
2022-07-26T18:28:22.560Z,4.13
2022-07-26T18:30:59.108Z,3.53
2022-07-26T18:33:31.637Z,3.50
2022-07-26T18:36:09.700Z,5.65
2022-07-26T18:38:37.997Z,3.97
2022-07-26T18:41:07.811Z,2.67
2022-07-26T18:43:36.759Z,6.53
2022-07-26T18:46:06.394Z,4.63
2022-07-26T18:48:35.718Z,5.00
2022-07-26T18:51:05.579Z,4.60
2022-07-26T18:53:37.708Z,6.28
2022-07-26T18:56:08.201Z,5.57
2022-07-26T19:01:20.292Z,8.00
2022-07-26T19:03:47.473Z,4.75
2022-07-26T19:06:20.095Z,5.22
2022-07-26T19:08:47.310Z,3.85
2022-07-26T19:11:15.640Z,4.32
2022-07-26T19:13:44.691Z,5.40
2022-07-26T19:16:12.792Z,6.38
2022-07-26T19:18:52.700Z,4.78
2022-07-26T19:21:26.075Z,6.00
2022-07-26T19:23:57.717Z,4.72
2022-07-26T19:26:28.024Z,6.47
2022-07-26T19:28:58.009Z,5.32
2022-07-26T19:31:26.662Z,5.75
2022-07-26T19:33:57.093Z,4.82
2022-07-26T19:36:26.614Z,6.68
2022-07-26T19:38:55.359Z,4.97
2022-07-26T19:41:27.077Z,8.13
2022-07-26T19:43:56.438Z,6.57
2022-07-26T19:46:27.221Z,10.98
2022-07-26T19:49:04.491Z,7.03
2022-07-26T19:51:44.244Z,5.28
2022-07-26T19:54:14.329Z,5.65
2022-07-26T19:56:45.241Z,8.65
2022-07-26T19:59:23.639Z,4.82
2022-07-26T20:01:53.346Z,7.28
2022-07-26T20:04:24.842Z,9.35
2022-07-26T20:06:55.361Z,7.18
2022-07-26T20:09:24.163Z,8.02
2022-07-26T20:11:54.518Z,5.10
2022-07-26T20:14:25.865Z,11.23
2022-07-26T20:16:56.057Z,6.05
2022-07-26T20:19:25.152Z,5.45
2022-07-26T20:21:53.498Z,5.20
2022-07-26T20:24:29.487Z,6.45
2022-07-26T20:26:58.968Z,8.00
2022-07-26T20:29:29.420Z,6.97
2022-07-26T20:32:00.349Z,6.68
2022-07-26T20:34:27.319Z,7.47
2022-07-26T20:36:56.389Z,7.15
2022-07-26T20:39:26.611Z,8.02
2022-07-26T20:41:57.387Z,10.85
2022-07-26T20:44:33.139Z,6.90
2022-07-26T20:47:10.292Z,8.20
2022-07-26T20:49:38.824Z,8.20
2022-07-26T20:52:09.747Z,6.53
2022-07-26T20:54:38.629Z,9.05
2022-07-26T20:57:12.403Z,9.65
2022-07-26T20:59:40.865Z,9.40
2022-07-26T21:02:11.215Z,8.80
2022-07-26T21:04:40.279Z,10.52
2022-07-26T21:07:08.172Z,9.23
2022-07-26T21:09:38.402Z,10.57
2022-07-26T21:12:15.293Z,12.68
2022-07-26T21:14:43.363Z,11.05
2022-07-26T21:17:13.701Z,9.80
2022-07-26T21:19:50.083Z,9.60
2022-07-26T21:22:16.836Z,9.30
2022-07-26T21:24:48.412Z,9.73
2022-07-26T21:27:18.769Z,11.57
2022-07-26T21:29:46.736Z,8.20
2022-07-26T21:32:14.880Z,9.93
2022-07-26T21:34:51.252Z,10.10
2022-07-26T21:37:21.651Z,11.40
2022-07-26T21:39:51.306Z,9.23
2022-07-26T21:42:20.118Z,11.30
2022-07-26T21:44:50.302Z,11.52
2022-07-26T21:47:18.569Z,8.10
2022-07-26T21:49:46.618Z,8.55
2022-07-26T21:52:14.472Z,11.75
2022-07-26T21:54:44.454Z,9.02
2022-07-26T21:57:15.551Z,12.07
2022-07-26T21:59:46.368Z,7.25
2022-07-26T22:02:20.577Z,9.32
2022-07-26T22:04:50.197Z,12.57
2022-07-26T22:07:18.623Z,9.05
2022-07-26T22:09:47.836Z,9.55
2022-07-26T22:12:17.868Z,11.07
2022-07-26T22:14:53.973Z,10.30
2022-07-26T22:17:23.173Z,10.27
2022-07-26T22:19:51.896Z,14.18
2022-07-26T22:22:24.360Z,9.63
2022-07-26T22:25:00.580Z,9.32
2022-07-26T22:27:28.385Z,10.30
2022-07-26T22:29:56.511Z,10.20
2022-07-26T22:32:28.478Z,16.38
2022-07-26T22:34:56.239Z,9.10
2022-07-26T22:37:27.868Z,9.23
2022-07-26T22:39:55.898Z,9.05
2022-07-26T22:42:24.352Z,10.27
2022-07-26T22:44:54.593Z,12.57
2022-07-26T22:47:23.288Z,7.78
2022-07-26T22:49:52.759Z,11.43
2022-07-26T22:52:29.293Z,9.05
2022-07-26T22:54:58.167Z,10.57
2022-07-26T22:57:29.320Z,13.65
2022-07-26T23:00:01.457Z,8.45
2022-07-26T23:02:28.107Z,11.32
2022-07-26T23:05:00.763Z,10.68
2022-07-26T23:07:36.642Z,10.27
2022-07-26T23:10:13.675Z,8.15
2022-07-26T23:12:45.340Z,13.13
2022-07-26T23:15:14.823Z,8.13
2022-07-26T23:17:41.889Z,13.27
2022-07-26T23:20:24.102Z,10.38
2022-07-26T23:22:54.866Z,9.95
2022-07-26T23:25:24.055Z,12.18
2022-07-26T23:27:52.473Z,14.07
2022-07-26T23:30:28.502Z,10.70
2022-07-26T23:32:57.980Z,13.00
2022-07-26T23:35:25.951Z,10.43
2022-07-26T23:37:56.243Z,14.45
2022-07-26T23:40:25.751Z,10.07
2022-07-26T23:42:55.254Z,11.02
2022-07-26T23:45:25.534Z,10.02
2022-07-26T23:47:55.901Z,10.63
2022-07-26T23:50:32.530Z,11.65
2022-07-26T23:53:00.590Z,6.40
2022-07-26T23:55:34.200Z,8.68
2022-07-26T23:58:06.229Z,9.95
